Time;durP1;ratioP1;P1;durP2;ratioP2;P2;SDS_P1;SDS_P2;PMS_P1;PMS_P2;Temp;Humidity;BMP_temperature;BMP_pressure;BME280_temperature;BME280_humidity;BME280_pressure;Samples;Min_cycle;Max_cycle;Signal;HPM_P1;HPM_P2
2022/01/21 00:01:56;;;;;;;26.20;16.17;;;;;;;-0.27;67.80;97017.50;6124185;23;20629;-81
2022/01/21 00:04:24;;;;;;;27.03;16.40;;;;;;;-0.28;66.75;96987.84;6122515;23;20605;-81
2022/01/21 00:06:53;;;;;;;28.73;15.10;;;;;;;-0.07;66.56;96976.72;6124352;23;20175;-84
2022/01/21 00:09:20;;;;;;;29.97;15.73;;;;;;;-0.11;66.64;96963.19;6149109;23;20160;-84
2022/01/21 00:11:47;;;;;;;27.77;14.43;;;;;;;-0.12;66.57;96971.66;6149711;23;20213;-81
2022/01/21 00:14:14;;;;;;;25.03;15.10;;;;;;;-0.19;66.52;96977.66;6123836;23;20191;-81
2022/01/21 00:16:42;;;;;;;27.43;15.87;;;;;;;-0.35;67.02;96975.19;6122438;23;20175;-82
2022/01/21 00:19:14;;;;;;;26.10;16.73;;;;;;;-0.09;66.07;96998.78;6150249;23;20166;-85
2022/01/21 00:30:19;;;;;;;31.03;17.80;;;;;;;-0.36;68.34;97017.56;6148980;23;20254;-81
2022/01/21 00:32:48;;;;;;;26.27;16.70;;;;;;;-0.54;69.40;96998.97;6124027;23;20194;-82
2022/01/21 00:35:17;;;;;;;27.37;16.03;;;;;;;-0.51;68.91;96979.47;6124250;23;20186;-82
2022/01/21 00:37:49;;;;;;;31.13;16.77;;;;;;;-0.47;69.05;96985.38;6126539;23;20171;-89
2022/01/21 00:40:22;;;;;;;32.20;17.90;;;;;;;-0.16;68.24;97028.50;6126243;23;20177;-90
2022/01/21 00:45:36;;;;;;;27.17;16.30;;;;;;;-0.18;68.66;97039.53;6151955;23;20209;-91
2022/01/21 00:48:04;;;;;;;35.70;17.90;;;;;;;-0.62;69.86;97016.81;6125391;23;20186;-84
2022/01/21 00:50:32;;;;;;;28.97;16.70;;;;;;;-0.57;70.84;97044.75;6125318;23;20173;-84
2022/01/21 00:53:00;;;;;;;30.43;16.40;;;;;;;-0.62;71.48;97044.78;6150830;23;20235;-87
2022/01/21 00:55:29;;;;;;;30.03;17.70;;;;;;;-0.66;71.47;97030.34;6149959;23;20299;-83
2022/01/21 00:57:56;;;;;;;30.77;17.30;;;;;;;-0.66;71.08;97014.28;6125202;23;20212;-84
2022/01/21 01:00:24;;;;;;;32.03;16.53;;;;;;;-0.61;70.30;96990.53;6149421;23;20517;-84
2022/01/21 01:02:51;;;;;;;26.13;15.43;;;;;;;-0.29;69.25;97016.66;6151004;23;20198;-85
2022/01/21 01:05:19;;;;;;;28.70;15.77;;;;;;;-0.16;68.74;96992.88;6149568;23;20254;-84
2022/01/21 01:07:46;;;;;;;18.33;11.33;;;;;;;0.03;66.89;96987.69;6151159;23;20659;-83
2022/01/21 01:10:21;;;;;;;23.70;13.87;;;;;;;0.26;66.45;96998.56;6150828;23;20169;-87
2022/01/21 01:19:52;;;;;;;27.47;13.60;;;;;;;0.38;66.72;96984.06;6124088;23;20225;-83
2022/01/21 01:21:23;;;;;;;23.87;14.27;;;;;;;0.43;66.42;96939.03;6124825;23;20246;-87
2022/01/21 01:29:05;;;;;;;23.03;14.03;;;;;;;0.59;66.23;96949.94;6152712;23;20167;-90
2022/01/21 01:31:32;;;;;;;24.77;14.43;;;;;;;0.47;66.80;96909.28;6152558;23;20635;-85
2022/01/21 01:34:01;;;;;;;22.93;12.70;;;;;;;0.69;67.42;96960.03;6136674;23;20226;-82
2022/01/21 01:36:28;;;;;;;22.57;13.30;;;;;;;0.54;67.65;96956.75;6106077;23;20175;-91
2022/01/21 01:42:13;;;;;;;20.33;12.33;;;;;;;0.31;69.63;96971.41;6128221;23;20167;-87
2022/01/21 01:50:39;;;;;;;22.03;11.63;;;;;;;-0.20;71.95;96964.91;6128944;23;20171;-89
2022/01/21 01:53:07;;;;;;;23.47;12.93;;;;;;;-0.14;72.25;96967.41;6128116;23;20163;-95
2022/01/21 01:55:37;;;;;;;21.03;11.37;;;;;;;-0.10;72.06;96969.09;6128497;23;20195;-90
2022/01/21 01:58:06;;;;;;;18.77;11.80;;;;;;;-0.22;71.77;96951.34;6127850;23;20517;-83
2022/01/21 02:00:33;;;;;;;21.47;12.67;;;;;;;-0.03;71.86;96981.78;6099860;23;20171;-82
2022/01/21 02:03:09;;;;;;;17.93;11.50;;;;;;;0.05;72.22;96976.66;6100801;23;20175;-87
2022/01/21 02:05:37;;;;;;;22.63;12.30;;;;;;;-0.10;72.80;96959.75;6124571;23;20205;-81
2022/01/21 02:08:10;;;;;;;19.20;11.63;;;;;;;-0.15;72.88;96974.22;6126693;23;20167;-83
2022/01/21 02:10:39;;;;;;;19.80;12.53;;;;;;;0.04;71.84;96967.34;6126284;23;20234;-84
2022/01/21 02:13:19;;;;;;;21.17;11.77;;;;;;;0.05;70.95;96952.88;6124427;23;20214;-80
2022/01/21 02:16:14;;;;;;;20.37;12.23;;;;;;;0.44;70.33;96999.31;6151306;23;20170;-84
2022/01/21 02:21:38;;;;;;;19.93;12.00;;;;;;;0.30;71.15;96995.16;6127611;23;20171;-87
2022/01/21 02:24:11;;;;;;;22.63;13.30;;;;;;;0.49;70.36;96999.28;6103666;23;20171;-89
2022/01/21 02:26:40;;;;;;;19.67;12.53;;;;;;;0.46;70.78;97010.31;6133256;23;20198;-84
2022/01/21 02:29:11;;;;;;;18.77;11.80;;;;;;;0.35;71.43;96998.53;6107701;23;20183;-83
2022/01/21 02:31:40;;;;;;;20.20;13.07;;;;;;;0.32;71.14;97001.94;6107398;23;20171;-81
2022/01/21 02:34:09;;;;;;;21.90;12.37;;;;;;;0.11;71.69;96988.47;6133175;23;20175;-85
2022/01/21 02:36:36;;;;;;;19.90;11.30;;;;;;;0.23;70.28;96989.25;6128545;23;20173;-88
2022/01/21 02:39:05;;;;;;;19.83;11.47;;;;;;;0.37;70.88;96986.63;6127442;23;20167;-86
2022/01/21 02:41:32;;;;;;;19.57;12.73;;;;;;;0.27;70.61;96957.00;6128634;23;20174;-84
2022/01/21 02:44:00;;;;;;;20.67;12.30;;;;;;;0.39;69.90;96951.81;6154142;23;20223;-85
2022/01/21 02:46:27;;;;;;;18.47;12.13;;;;;;;0.62;70.21;96976.22;6129123;23;20206;-83
2022/01/21 02:48:56;;;;;;;18.13;10.77;;;;;;;0.57;70.01;96964.41;6150973;23;20172;-81
2022/01/21 02:51:23;;;;;;;20.60;12.50;;;;;;;0.67;69.65;96963.44;6091473;23;20181;-81
2022/01/21 02:56:18;;;;;;;18.70;11.27;;;;;;;0.65;68.32;96955.84;6115705;23;20639;-81
2022/01/21 02:58:47;;;;;;;18.00;11.47;;;;;;;0.83;69.40;96981.16;6141845;23;20167;-81
2022/01/21 03:01:17;;;;;;;18.53;11.97;;;;;;;0.74;68.80;96965.94;6140064;23;20198;-83
2022/01/21 03:03:46;;;;;;;20.67;12.43;;;;;;;0.87;67.97;96976.03;6166885;23;20178;-81
2022/01/21 03:06:17;;;;;;;18.70;11.63;;;;;;;0.82;69.04;96964.16;6143038;23;20191;-82
2022/01/21 03:08:46;;;;;;;19.83;11.47;;;;;;;0.69;68.27;96941.34;6139727;23;20163;-85
2022/01/21 03:11:15;;;;;;;19.87;12.40;;;;;;;0.78;69.43;96967.59;6150941;23;20199;-84
2022/01/21 03:13:44;;;;;;;24.27;14.37;;;;;;;0.71;70.33;96970.22;6124194;23;20553;-82
2022/01/21 03:16:12;;;;;;;28.43;13.00;;;;;;;0.75;70.88;96979.53;6151635;23;20159;-80
2022/01/21 03:18:40;;;;;;;23.20;13.60;;;;;;;0.61;71.38;96950.78;6125487;23;20246;-81
2022/01/21 03:21:15;;;;;;;22.73;14.27;;;;;;;0.44;71.38;96940.72;6125328;23;20205;-81
2022/01/21 03:23:50;;;;;;;25.43;14.03;;;;;;;0.70;72.02;96984.66;6123553;23;20170;-85
2022/01/21 03:26:22;;;;;;;23.00;13.37;;;;;;;0.74;71.91;96971.03;6100269;23;20213;-84
2022/01/21 03:28:57;;;;;;;16.73;11.60;;;;;;;0.69;72.21;96970.22;6100483;23;20175;-80
2022/01/21 03:31:27;;;;;;;22.67;12.77;;;;;;;0.69;73.41;96971.94;6099971;23;20166;-82
2022/01/21 03:33:54;;;;;;;21.93;12.10;;;;;;;0.70;73.75;96968.53;6124989;23;20251;-85
2022/01/21 03:36:22;;;;;;;23.63;13.40;;;;;;;0.78;73.60;96966.78;6122860;23;20628;-80
2022/01/21 03:38:49;;;;;;;23.83;12.93;;;;;;;0.66;74.15;96951.59;6124758;23;20187;-81
2022/01/21 03:41:18;;;;;;;20.23;11.57;;;;;;;0.87;73.00;96965.84;6123721;23;20201;-81
2022/01/21 03:43:47;;;;;;;21.80;11.87;;;;;;;0.94;74.17;96973.41;6150190;23;20694;-81
2022/01/21 03:46:16;;;;;;;24.93;12.70;;;;;;;1.02;74.24;96971.63;6124898;23;20221;-84
2022/01/21 03:48:48;;;;;;;18.60;11.97;;;;;;;0.76;73.26;96948.91;6149440;23;20177;-84
2022/01/21 03:51:18;;;;;;;23.70;11.87;;;;;;;1.10;74.70;96976.63;6125043;23;20682;-84
2022/01/21 03:53:47;;;;;;;17.73;11.27;;;;;;;1.12;75.58;96978.31;6122834;23;20190;-81
2022/01/21 03:56:16;;;;;;;18.37;10.57;;;;;;;1.18;75.10;96982.50;6099243;23;20623;-83
2022/01/21 03:58:49;;;;;;;18.30;10.30;;;;;;;1.11;75.29;96963.91;6123610;23;20201;-82
2022/01/21 04:01:18;;;;;;;16.87;11.33;;;;;;;1.25;76.86;96990.09;6122750;23;20208;-82
2022/01/21 04:03:47;;;;;;;19.70;11.63;;;;;;;1.38;76.92;96993.38;6123464;23;20174;-82
2022/01/21 04:06:15;;;;;;;19.97;11.43;;;;;;;1.27;76.97;96975.63;6122095;23;20190;-82
2022/01/21 04:08:43;;;;;;;22.47;13.20;;;;;;;1.38;77.76;96983.97;6124078;23;20159;-83
2022/01/21 04:11:13;;;;;;;18.10;10.97;;;;;;;1.43;79.13;96983.94;6128995;23;20178;-91
2022/01/21 04:13:46;;;;;;;13.67;7.67;;;;;;;1.69;80.11;96976.00;6128598;23;20214;-89
2022/01/21 04:16:17;;;;;;;8.97;5.80;;;;;;;1.83;80.25;96986.88;6101981;23;20551;-94
2022/01/21 04:18:46;;;;;;;6.40;4.07;;;;;;;2.14;81.31;96965.16;6125314;23;20267;-90
2022/01/21 04:21:16;;;;;;;3.33;2.60;;;;;;;2.44;80.39;96975.78;6127030;23;20174;-92
2022/01/21 04:23:44;;;;;;;4.03;2.80;;;;;;;2.51;78.91;96953.53;6125545;23;20174;-92
2022/01/21 04:26:21;;;;;;;3.70;2.20;;;;;;;2.69;76.98;96953.22;6102128;23;20207;-88
2022/01/21 04:29:24;;;;;;;3.90;2.07;;;;;;;3.01;75.29;96983.38;6127091;23;20179;-92
2022/01/21 04:32:05;;;;;;;3.73;2.40;;;;;;;3.06;74.97;96976.47;6103797;23;20171;-87
2022/01/21 04:34:33;;;;;;;2.03;1.70;;;;;;;3.17;74.24;96979.69;6127272;23;20194;-91
2022/01/21 04:37:02;;;;;;;2.30;1.83;;;;;;;3.14;74.08;96978.03;6125893;23;20164;-93
2022/01/21 04:39:49;;;;;;;1.97;1.63;;;;;;;3.22;73.30;96981.28;6103591;23;20635;-82
2022/01/21 04:47:39;;;;;;;1.80;1.47;;;;;;;3.30;70.37;96984.53;6125030;23;20167;-82
2022/01/21 04:50:13;;;;;;;1.60;1.40;;;;;;;3.38;70.32;96989.50;6122773;23;20193;-79
2022/01/21 04:52:47;;;;;;;2.13;1.30;;;;;;;3.36;69.79;96985.31;6124266;23;20186;-88
2022/01/21 04:55:35;;;;;;;1.53;1.27;;;;;;;3.45;69.67;96993.66;6150472;23;20621;-82
2022/01/21 04:58:03;;;;;;;2.43;1.70;;;;;;;3.43;69.70;97004.78;6098194;23;20520;-83
2022/01/21 05:00:31;;;;;;;2.13;1.63;;;;;;;3.30;69.97;96994.78;6124818;23;20234;-84
2022/01/21 05:03:00;;;;;;;1.97;1.73;;;;;;;3.17;70.32;96983.06;6103197;23;20172;-82
2022/01/21 05:05:28;;;;;;;2.30;1.40;;;;;;;3.35;70.69;97014.31;6125522;23;20240;-81
2022/01/21 05:07:59;;;;;;;1.67;1.43;;;;;;;3.29;70.93;97008.47;6152313;23;20199;-88
2022/01/21 05:10:35;;;;;;;2.03;1.00;;;;;;;3.23;70.11;97008.56;6128185;23;20163;-81
2022/01/21 05:13:03;;;;;;;1.07;0.97;;;;;;;3.24;70.99;97011.94;6127153;23;20169;-81
2022/01/21 05:15:58;;;;;;;2.50;1.60;;;;;;;3.14;70.99;97013.84;6100442;23;20270;-81
2022/01/21 05:18:19;;;;;;;1.30;1.20;;;;;;;3.25;71.73;97022.19;6126031;23;20183;-81
2022/01/21 05:21:09;;;;;;;2.07;1.40;;;;;;;2.98;72.54;96993.66;6073093;23;20178;-85
2022/01/21 05:24:07;;;;;;;1.40;1.30;;;;;;;3.19;72.25;97034.22;6125972;23;20717;-84
2022/01/21 05:26:37;;;;;;;1.90;1.50;;;;;;;3.11;73.38;97024.09;6126215;23;20671;-82
2022/01/21 05:29:09;;;;;;;1.97;1.60;;;;;;;3.09;72.63;97020.72;6075893;23;20172;-82
2022/01/21 05:31:47;;;;;;;1.77;1.67;;;;;;;2.92;72.85;97015.06;6101147;23;20182;-89
2022/01/21 05:34:34;;;;;;;3.63;1.80;;;;;;;2.92;72.93;97012.50;6125254;23;20171;-81
2022/01/21 05:37:13;;;;;;;2.37;1.40;;;;;;;2.95;72.41;97029.50;6123803;23;20273;-82
2022/01/21 05:40:14;;;;;;;3.80;1.97;;;;;;;2.91;72.88;97026.16;6080540;23;20599;-82
2022/01/21 05:42:53;;;;;;;3.17;1.83;;;;;;;2.88;71.24;97013.44;6124314;23;20699;-82
2022/01/21 05:48:42;;;;;;;2.87;2.00;;;;;;;2.94;70.62;96998.00;6150323;23;20171;-80
2022/01/21 05:51:28;;;;;;;4.33;1.80;;;;;;;2.87;70.96;96998.94;6150560;23;20170;-84
2022/01/21 05:54:10;;;;;;;1.73;1.40;;;;;;;3.16;70.45;97024.88;6123050;23;20178;-81
2022/01/21 05:56:54;;;;;;;2.23;1.57;;;;;;;3.14;70.53;97021.50;6125015;23;20245;-83
2022/01/21 05:59:29;;;;;;;2.23;1.90;;;;;;;3.06;69.14;97013.13;6122768;23;20170;-81
2022/01/21 06:01:56;;;;;;;3.37;2.30;;;;;;;3.10;69.67;97024.13;6124560;23;20191;-81
2022/01/21 06:04:24;;;;;;;1.90;1.70;;;;;;;2.94;68.53;96992.88;6124106;23;20163;-81
2022/01/21 06:06:51;;;;;;;2.90;2.40;;;;;;;3.24;69.35;97052.88;6124497;23;20222;-81
2022/01/21 06:09:20;;;;;;;4.07;2.47;;;;;;;3.01;69.09;97030.25;6124304;23;20169;-82
2022/01/21 06:11:51;;;;;;;1.77;1.50;;;;;;;3.28;68.76;97057.94;6123390;23;20164;-82
2022/01/21 06:14:18;;;;;;;3.73;2.80;;;;;;;3.25;69.76;97065.69;6100508;23;20631;-83
2022/01/21 06:16:47;;;;;;;1.43;1.30;;;;;;;3.19;69.30;97065.75;6098502;23;20176;-81
2022/01/21 06:19:15;;;;;;;2.60;1.50;;;;;;;3.14;69.25;97065.00;6151426;23;20540;-82
2022/01/21 06:21:42;;;;;;;3.50;2.47;;;;;;;3.09;69.61;97053.16;6149942;23;20187;-84
2022/01/21 06:24:10;;;;;;;2.50;2.23;;;;;;;3.00;70.09;97043.91;6150542;23;20174;-81
2022/01/21 06:26:38;;;;;;;4.40;3.23;;;;;;;3.18;70.57;97078.56;6150747;23;20274;-81
2022/01/21 06:29:06;;;;;;;4.00;2.73;;;;;;;3.13;70.36;97076.09;6099653;23;20194;-82
2022/01/21 06:31:33;;;;;;;4.47;2.87;;;;;;;3.04;70.75;97075.41;6150875;23;20167;-82
2022/01/21 06:34:01;;;;;;;4.43;3.07;;;;;;;3.03;71.00;97083.97;6123869;23;20206;-93
2022/01/21 06:36:28;;;;;;;1.73;1.60;;;;;;;3.08;69.21;97093.25;6151116;23;20654;-83
2022/01/21 06:38:56;;;;;;;2.10;1.60;;;;;;;3.02;69.51;97085.66;6100201;23;20197;-82
2022/01/21 06:41:24;;;;;;;4.20;2.97;;;;;;;2.90;70.65;97067.09;6151094;23;20813;-85
2022/01/21 06:43:52;;;;;;;3.83;3.40;;;;;;;3.03;71.63;97094.19;6101031;23;20172;-88
2022/01/21 06:46:19;;;;;;;3.13;1.90;;;;;;;2.78;68.02;97050.22;6154068;23;20199;-84
2022/01/21 06:48:46;;;;;;;3.00;2.00;;;;;;;2.85;68.82;97081.66;6132185;23;20238;-89
2022/01/21 06:51:14;;;;;;;3.40;1.50;;;;;;;2.91;68.21;97099.47;6078093;23;20668;-85
2022/01/21 06:53:42;;;;;;;2.70;1.63;;;;;;;2.91;69.17;97104.59;6126849;23;20171;-92
2022/01/21 06:56:10;;;;;;;5.60;2.40;;;;;;;2.74;69.58;97073.31;6151777;23;20249;-84
2022/01/21 06:58:38;;;;;;;3.07;2.30;;;;;;;2.81;68.74;97091.09;6127728;23;20178;-83
2022/01/21 07:01:05;;;;;;;5.33;2.37;;;;;;;2.84;68.22;97103.84;6154035;23;20174;-81
2022/01/21 07:03:33;;;;;;;3.10;2.03;;;;;;;2.60;68.47;97044.56;6101708;23;20171;-84
2022/01/21 07:06:01;;;;;;;2.20;2.00;;;;;;;2.87;68.85;97105.50;6151896;23;20171;-82
2022/01/21 07:08:29;;;;;;;3.50;1.97;;;;;;;2.89;68.71;97099.50;6151318;23;20171;-82
2022/01/21 07:10:56;;;;;;;2.10;1.90;;;;;;;2.80;69.45;97086.88;6154218;23;20171;-81
2022/01/21 07:13:23;;;;;;;4.03;2.57;;;;;;;2.86;70.72;97111.50;6126038;23;20171;-82
2022/01/21 07:15:50;;;;;;;4.57;2.70;;;;;;;2.79;69.69;97115.84;6102116;23;20183;-92
2022/01/21 07:18:17;;;;;;;4.30;3.17;;;;;;;2.81;70.73;97133.72;6125493;23;20631;-93
2022/01/21 07:20:45;;;;;;;4.70;3.00;;;;;;;2.79;69.77;97126.06;6127120;23;20227;-89
2022/01/21 07:23:12;;;;;;;1.70;1.60;;;;;;;2.84;67.81;97114.09;6155127;23;20164;-88
2022/01/21 07:25:41;;;;;;;3.33;1.87;;;;;;;2.47;67.27;97059.22;6149750;23;20171;-82
2022/01/21 07:28:09;;;;;;;2.17;1.50;;;;;;;2.80;65.33;97127.78;6150006;23;20195;-80
2022/01/21 07:30:42;;;;;;;2.63;1.50;;;;;;;2.78;64.78;97152.50;6097986;23;20635;-82
2022/01/21 07:33:10;;;;;;;2.80;1.80;;;;;;;2.75;64.85;97142.31;6149446;23;20171;-81
2022/01/21 07:35:37;;;;;;;2.00;1.53;;;;;;;2.63;64.24;97129.72;6123465;23;20258;-81
2022/01/21 07:38:11;;;;;;;1.53;1.40;;;;;;;2.67;63.42;97123.69;6098799;23;20544;-82
2022/01/21 07:40:38;;;;;;;2.83;2.13;;;;;;;2.64;65.19;97105.81;6124119;23;20178;-81
2022/01/21 07:43:06;;;;;;;3.97;2.30;;;;;;;2.56;65.29;97102.53;6149006;23;20175;-84
2022/01/21 07:46:01;;;;;;;3.43;2.00;;;;;;;2.38;65.21;97093.41;6108404;23;20214;-83
2022/01/21 07:48:34;;;;;;;3.20;1.97;;;;;;;2.58;65.51;97135.75;6104619;23;20171;-81
2022/01/21 07:51:09;;;;;;;3.00;1.83;;;;;;;2.61;65.75;97134.00;6111087;23;20186;-82
2022/01/21 07:53:44;;;;;;;6.13;3.57;;;;;;;2.61;65.52;97167.22;6103118;23;20175;-81
2022/01/21 07:56:16;;;;;;;4.03;2.37;;;;;;;2.65;65.79;97150.97;6121538;23;20289;-81
2022/01/21 07:59:06;;;;;;;3.10;2.07;;;;;;;2.71;66.61;97153.47;6100126;23;20167;-82
2022/01/21 08:01:36;;;;;;;1.50;1.40;;;;;;;2.53;64.90;97166.47;6124621;23;20170;-82
2022/01/21 08:04:04;;;;;;;1.80;1.67;;;;;;;2.56;65.97;97168.97;6122879;23;20191;-82
2022/01/21 08:06:32;;;;;;;2.97;1.80;;;;;;;2.65;64.94;97181.66;6075937;23;20230;-82
2022/01/21 08:09:00;;;;;;;2.03;1.60;;;;;;;2.42;64.43;97181.09;6148122;23;20225;-80
2022/01/21 08:11:28;;;;;;;1.40;1.30;;;;;;;2.46;65.08;97198.06;6100143;23;20179;-83
2022/01/21 08:13:56;;;;;;;2.57;2.10;;;;;;;2.46;64.93;97198.06;6099465;23;20192;-81
2022/01/21 08:16:24;;;;;;;2.53;1.50;;;;;;;2.44;64.18;97202.34;6151154;23;20163;-83
2022/01/21 08:19:07;;;;;;;1.77;1.40;;;;;;;2.20;62.72;97180.50;6099809;23;20172;-83
2022/01/21 08:21:35;;;;;;;1.77;1.33;;;;;;;2.09;61.17;97161.88;6099730;23;20171;-85
2022/01/21 08:24:06;;;;;;;1.93;1.60;;;;;;;2.29;59.56;97184.63;6123558;23;20205;-81
2022/01/21 08:26:36;;;;;;;1.47;1.20;;;;;;;2.48;56.40;97219.34;6122441;23;20207;-81
2022/01/21 08:29:05;;;;;;;2.53;1.60;;;;;;;2.47;55.61;97210.00;6126425;23;20195;-81
2022/01/21 08:31:33;;;;;;;3.13;1.73;;;;;;;2.55;54.85;97225.25;6099408;23;20195;-80
2022/01/21 08:34:02;;;;;;;2.80;1.90;;;;;;;2.61;55.25;97202.16;6123650;23;20174;-80
2022/01/21 08:36:30;;;;;;;2.53;1.70;;;;;;;2.65;53.64;97207.22;6098317;23;20185;-81
2022/01/21 08:38:59;;;;;;;2.93;1.80;;;;;;;2.78;52.05;97226.63;6099263;23;20167;-84
2022/01/21 08:41:27;;;;;;;1.40;1.30;;;;;;;2.72;51.21;97180.69;6101050;23;20171;-81
2022/01/21 08:43:55;;;;;;;5.73;2.43;;;;;;;2.75;50.86;97210.50;6100226;23;20175;-82
2022/01/21 08:46:23;;;;;;;3.73;1.90;;;;;;;2.63;51.04;97201.28;6126843;23;20611;-81
2022/01/21 08:48:51;;;;;;;8.57;3.67;;;;;;;2.71;52.07;97209.69;6151841;23;20239;-82
2022/01/21 08:51:27;;;;;;;5.57;3.30;;;;;;;2.71;52.00;97202.03;6128151;23;20175;-81
2022/01/21 08:54:00;;;;;;;2.60;1.40;;;;;;;2.86;51.62;97235.09;6128050;23;20171;-82
2022/01/21 08:56:28;;;;;;;3.83;2.00;;;;;;;2.86;50.90;97234.22;6151009;23;20199;-82
2022/01/21 08:58:57;;;;;;;3.03;1.40;;;;;;;2.72;50.69;97219.03;6152178;23;20175;-83
2022/01/21 09:01:27;;;;;;;5.27;1.97;;;;;;;2.77;51.05;97234.34;6151319;23;20233;-81
2022/01/21 09:03:56;;;;;;;2.83;1.60;;;;;;;2.84;50.96;97256.44;6151834;23;20163;-78
2022/01/21 09:06:29;;;;;;;3.80;2.50;;;;;;;2.79;51.88;97243.69;6077462;23;20179;-84
2022/01/21 09:08:57;;;;;;;2.50;1.97;;;;;;;2.85;50.49;97256.41;6127687;23;20191;-83
2022/01/21 09:11:26;;;;;;;2.00;1.30;;;;;;;2.80;50.31;97247.94;6124279;23;20172;-81
2022/01/21 09:13:54;;;;;;;4.90;1.90;;;;;;;2.82;50.23;97253.91;6152143;23;20277;-82
2022/01/21 09:16:24;;;;;;;6.83;1.70;;;;;;;2.68;48.98;97270.25;6102526;23;20237;-86
2022/01/21 09:18:56;;;;;;;3.43;1.40;;;;;;;2.74;50.17;97254.84;6101194;23;20168;-81
2022/01/21 09:21:34;;;;;;;2.47;1.57;;;;;;;2.81;49.73;97264.97;6129715;23;20186;-82
2022/01/21 09:24:09;;;;;;;1.70;1.43;;;;;;;2.78;49.44;97257.31;6130079;23;20174;-85
2022/01/21 09:26:39;;;;;;;1.60;1.23;;;;;;;2.66;50.42;97236.19;6107262;23;20639;-90
2022/01/21 09:29:07;;;;;;;2.23;1.80;;;;;;;2.68;49.86;97255.75;6081019;23;20229;-85
2022/01/21 09:31:37;;;;;;;1.80;1.53;;;;;;;2.63;49.42;97244.75;6129300;23;20186;-92
2022/01/21 09:34:25;;;;;;;7.57;1.53;;;;;;;2.48;46.45;97240.66;6110131;23;20278;-88
2022/01/21 09:36:58;;;;;;;1.30;1.20;;;;;;;2.46;46.26;97228.75;6126763;23;20249;-82
2022/01/21 09:39:28;;;;;;;1.20;1.10;;;;;;;2.33;47.61;97217.81;6125939;23;20194;-85
2022/01/21 09:42:37;;;;;;;2.37;1.70;;;;;;;2.48;47.68;97235.53;6153060;23;20185;-86
2022/01/21 09:45:59;;;;;;;2.27;1.50;;;;;;;2.45;47.30;97232.19;6105305;23;20469;-82
2022/01/21 09:49:26;;;;;;;1.10;1.00;;;;;;;2.34;47.64;97246.75;6103852;23;20890;-82
2022/01/21 09:52:47;;;;;;;2.10;1.37;;;;;;;2.36;48.26;97227.16;6149716;23;20275;-85
2022/01/21 09:56:08;;;;;;;1.30;1.20;;;;;;;2.35;48.90;97239.06;6149537;23;20195;-83
2022/01/21 09:59:31;;;;;;;2.00;1.33;;;;;;;2.37;48.12;97234.78;6150744;23;20174;-84
2022/01/21 10:02:53;;;;;;;1.43;1.20;;;;;;;2.38;48.67;97223.72;6124106;23;20184;-91
2022/01/21 10:06:14;;;;;;;3.07;1.90;;;;;;;2.49;48.98;97229.53;6082168;23;20555;-81
2022/01/21 10:09:35;;;;;;;5.10;2.40;;;;;;;2.72;47.29;97211.38;6130930;23;20171;-82
2022/01/21 10:13:02;;;;;;;3.13;1.20;;;;;;;2.79;46.88;97207.03;6150734;23;20187;-83
2022/01/21 10:16:30;;;;;;;4.37;2.10;;;;;;;2.85;45.94;97202.69;6128641;23;20198;-83
2022/01/21 10:20:07;;;;;;;4.50;1.73;;;;;;;2.81;45.00;97190.81;6125985;23;20751;-85
2022/01/21 10:23:20;;;;;;;3.97;1.77;;;;;;;2.83;45.23;97209.53;6150620;23;20482;-85
2022/01/21 10:26:44;;;;;;;3.73;1.77;;;;;;;2.80;44.89;97196.81;6124795;23;20175;-82
2022/01/21 10:30:15;;;;;;;2.70;1.57;;;;;;;2.71;45.00;97203.72;6150172;23;20604;-81
2022/01/21 10:33:43;;;;;;;4.43;2.40;;;;;;;2.66;44.21;97195.28;6126003;23;20226;-80
2022/01/21 10:37:08;;;;;;;4.73;2.63;;;;;;;2.73;44.56;97199.44;6123449;23;20175;-84
2022/01/21 10:40:33;;;;;;;3.93;2.00;;;;;;;2.76;45.46;97204.53;6151767;23;20171;-80
2022/01/21 10:43:59;;;;;;;3.20;2.10;;;;;;;2.88;45.63;97207.78;6150709;23;20186;-86
2022/01/21 10:47:22;;;;;;;4.40;1.70;;;;;;;2.72;45.19;97161.97;6122778;23;20248;-79
2022/01/21 10:50:44;;;;;;;2.40;1.57;;;;;;;2.79;45.82;97181.47;6150645;23;20163;-86
2022/01/21 10:54:06;;;;;;;3.70;2.27;;;;;;;2.82;45.87;97181.44;6107536;23;20178;-82
2022/01/21 10:57:36;;;;;;;7.30;2.63;;;;;;;2.80;46.48;97170.41;6155706;23;20196;-83
2022/01/21 11:00:57;;;;;;;3.10;1.50;;;;;;;2.62;46.59;97152.75;6137305;23;20178;-82
2022/01/21 11:04:34;;;;;;;2.03;1.50;;;;;;;2.76;47.09;97172.13;6125364;23;20214;-82
2022/01/21 11:08:09;;;;;;;3.73;2.47;;;;;;;2.94;47.67;97166.78;6128262;23;20207;-82
2022/01/21 11:11:34;;;;;;;3.20;1.20;;;;;;;2.75;46.49;97155.09;6103807;23;20172;-83
2022/01/21 11:14:58;;;;;;;3.07;1.70;;;;;;;2.79;46.75;97163.56;6155928;23;20167;-84
2022/01/21 11:18:21;;;;;;;2.47;1.70;;;;;;;2.84;47.62;97164.38;6108271;23;20195;-94
2022/01/21 11:21:44;;;;;;;2.60;2.17;;;;;;;2.86;45.63;97168.59;6107654;23;20177;-87
2022/01/21 11:25:12;;;;;;;2.53;2.20;;;;;;;2.92;46.55;97140.38;6098940;23;20753;-87
2022/01/21 11:28:58;;;;;;;5.77;2.70;;;;;;;3.02;46.35;97146.19;6081553;23;20239;-83
2022/01/21 11:32:21;;;;;;;4.33;3.10;;;;;;;3.00;45.41;97136.00;6095098;23;20299;-83
2022/01/21 11:36:01;;;;;;;2.57;1.80;;;;;;;3.01;45.15;97132.56;6011716;23;20179;-81
2022/01/21 11:39:25;;;;;;;7.43;3.20;;;;;;;3.05;44.50;97133.38;5983999;23;20170;-82
2022/01/21 11:42:49;;;;;;;4.87;2.50;;;;;;;3.24;42.74;97127.94;6012662;23;20232;-80
2022/01/21 11:46:36;;;;;;;4.03;2.50;;;;;;;3.38;41.79;97132.81;6037555;23;20178;-81
2022/01/21 11:49:58;;;;;;;6.67;1.80;;;;;;;3.32;40.60;97132.09;6011564;23;20175;-82
2022/01/21 11:53:24;;;;;;;1.33;1.23;;;;;;;3.34;40.82;97120.13;6007820;23;20229;-83
2022/01/21 11:57:18;;;;;;;3.27;1.77;;;;;;;3.38;38.91;97116.66;6010532;23;20304;-94
2022/01/21 12:00:52;;;;;;;4.80;3.03;;;;;;;3.42;39.45;97116.53;6033367;23;20170;-86
2022/01/21 12:04:13;;;;;;;1.43;1.30;;;;;;;3.43;40.24;97114.84;6009851;23;20626;-87
2022/01/21 12:07:34;;;;;;;2.07;1.47;;;;;;;3.37;40.46;97120.06;6075207;23;20196;-85
2022/01/21 12:10:25;;;;;;;2.07;1.63;;;;;;;3.32;40.33;97111.63;6071827;23;20184;-89
2022/01/21 12:13:28;;;;;;;2.23;1.60;;;;;;;3.36;40.62;97103.84;6044587;23;20168;-84
2022/01/21 12:17:14;;;;;;;3.03;1.40;;;;;;;3.41;40.79;97089.28;6090731;23;20192;-82
2022/01/21 12:20:36;;;;;;;1.83;1.30;;;;;;;3.37;41.49;97094.47;6042344;23;20176;-85
2022/01/21 12:24:04;;;;;;;2.17;1.97;;;;;;;3.42;41.80;97087.56;6072152;23;20169;-82
2022/01/21 12:27:35;;;;;;;1.93;1.30;;;;;;;3.38;41.16;97080.81;6103003;23;20210;-79
2022/01/21 12:30:45;;;;;;;3.57;1.70;;;;;;;3.46;42.27;97095.19;6089671;23;20185;-83
2022/01/21 12:34:09;;;;;;;3.40;1.90;;;;;;;3.38;41.42;97083.38;6091691;23;20180;-85
2022/01/21 12:37:53;;;;;;;1.97;1.47;;;;;;;3.22;41.19;97093.88;6078133;23;20176;-96
2022/01/21 12:41:14;;;;;;;3.77;1.23;;;;;;;3.20;41.72;97087.91;6119715;23;20185;-91
2022/01/21 12:44:21;;;;;;;2.30;1.63;;;;;;;3.23;42.02;97085.34;6102592;23;20259;-81
2022/01/21 12:47:35;;;;;;;4.63;2.87;;;;;;;3.26;42.55;97100.63;6035905;23;20923;-85
2022/01/21 12:51:21;;;;;;;1.97;1.73;;;;;;;3.26;41.61;97097.19;6039144;23;20689;-85
2022/01/21 12:58:33;;;;;;;1.47;1.10;;;;;;;3.06;41.96;97105.22;6060654;23;20213;-82
2022/01/21 13:02:04;;;;;;;1.30;1.20;;;;;;;3.00;43.07;97096.78;6056348;23;20169;-83
2022/01/21 13:05:32;;;;;;;2.47;1.53;;;;;;;3.02;43.91;97111.25;6057997;23;20169;-82
2022/01/21 13:08:18;;;;;;;3.73;1.60;;;;;;;2.97;43.81;97096.81;6037233;23;20205;-83
2022/01/21 13:11:41;;;;;;;5.17;1.60;;;;;;;2.90;43.32;97087.56;6059046;23;20169;-81
2022/01/21 13:15:02;;;;;;;2.90;1.83;;;;;;;3.03;44.95;97102.69;6057190;23;20170;-84
2022/01/21 13:18:23;;;;;;;3.63;2.17;;;;;;;3.11;44.33;97105.97;6105169;23;20168;-82
2022/01/21 13:21:47;;;;;;;2.23;1.50;;;;;;;2.99;44.00;97108.72;6125469;23;20176;-85
2022/01/21 13:25:15;;;;;;;1.53;1.40;;;;;;;2.87;44.04;97114.03;6150589;23;20222;-83
2022/01/21 13:28:35;;;;;;;2.43;1.60;;;;;;;2.93;43.91;97087.50;6152993;23;20202;-87
2022/01/21 13:31:37;;;;;;;2.73;1.90;;;;;;;2.98;43.60;97122.38;6124495;23;20204;-89
2022/01/21 13:35:01;;;;;;;4.60;2.13;;;;;;;2.99;43.51;97118.09;6154178;23;20167;-89
2022/01/21 13:38:22;;;;;;;2.40;1.50;;;;;;;2.90;41.96;97114.00;6128896;23;20175;-83
2022/01/21 13:41:43;;;;;;;1.40;1.20;;;;;;;2.74;41.57;97112.50;6124636;23;20167;-88
2022/01/21 13:45:08;;;;;;;2.33;1.60;;;;;;;2.67;42.08;97113.47;6124596;23;20524;-82
2022/01/21 13:48:34;;;;;;;2.13;1.27;;;;;;;2.60;42.37;97114.41;6126668;23;20705;-81